Time;durP1;ratioP1;P1;durP2;ratioP2;P2;SDS_P1;SDS_P2;PMS_P1;PMS_P2;Temp;Humidity;BMP_temperature;BMP_pressure;BME280_temperature;BME280_humidity;BME280_pressure;Samples;Min_cycle;Max_cycle;Signal;HPM_P1;HPM_P2
2023/08/19 00:01:44;;;;;;;58.60;41.97;;;23.60;99.90;;;;;;5030070;28;20021;-80
2023/08/19 00:04:10;;;;;;;56.03;39.85;;;23.60;99.90;;;;;;5046523;28;20053;-80
2023/08/19 00:06:39;;;;;;;67.40;43.90;;;23.60;99.90;;;;;;5033099;28;20025;-80
2023/08/19 00:09:07;;;;;;;63.03;43.03;;;23.60;99.90;;;;;;5031719;28;20144;-81
2023/08/19 00:11:34;;;;;;;58.65;40.35;;;23.50;99.90;;;;;;5030374;28;20022;-81
2023/08/19 00:14:00;;;;;;;59.78;41.28;;;23.50;99.90;;;;;;5031500;28;20041;-80
2023/08/19 00:16:26;;;;;;;61.22;42.55;;;23.50;99.90;;;;;;5046744;28;20030;-80
2023/08/19 00:18:52;;;;;;;61.05;39.95;;;23.50;99.90;;;;;;5031391;28;20430;-80
2023/08/19 00:21:18;;;;;;;61.67;42.08;;;23.50;99.90;;;;;;5032990;28;20021;-81
2023/08/19 00:23:44;;;;;;;59.35;41.30;;;23.50;99.90;;;;;;5037115;28;20120;-77
2023/08/19 00:26:12;;;;;;;65.75;42.55;;;23.40;99.90;;;;;;5039406;28;20033;-77
2023/08/19 00:28:39;;;;;;;49.75;37.80;;;23.40;99.90;;;;;;5039696;28;20033;-79
2023/08/19 00:31:06;;;;;;;56.03;41.10;;;23.50;99.90;;;;;;5038993;28;20454;-78
2023/08/19 00:33:32;;;;;;;61.38;42.42;;;23.50;99.90;;;;;;5040411;28;20112;-78
2023/08/19 00:35:59;;;;;;;60.20;42.90;;;23.50;99.90;;;;;;5055780;28;20049;-77
2023/08/19 00:38:25;;;;;;;59.60;40.20;;;23.40;99.90;;;;;;5038082;28;20029;-78
2023/08/19 00:40:50;;;;;;;55.40;40.95;;;23.50;99.90;;;;;;5039181;28;20026;-82
2023/08/19 00:43:16;;;;;;;54.80;39.65;;;23.50;99.90;;;;;;5040613;28;20025;-78
2023/08/19 00:45:47;;;;;;;57.45;40.00;;;23.40;99.90;;;;;;5038824;28;20083;-78
2023/08/19 00:48:15;;;;;;;63.92;45.92;;;23.40;99.90;;;;;;5038910;28;20040;-78
2023/08/19 00:50:42;;;;;;;60.70;43.15;;;23.50;99.90;;;;;;5039290;28;20026;-78
2023/08/19 00:53:09;;;;;;;54.67;41.30;;;23.50;99.90;;;;;;5039181;28;20017;-79
2023/08/19 00:55:36;;;;;;;64.82;42.45;;;23.50;99.90;;;;;;5039254;28;20382;-77
2023/08/19 00:58:03;;;;;;;60.50;42.53;;;23.50;99.90;;;;;;5039315;28;20064;-79
2023/08/19 01:00:32;;;;;;;54.17;38.30;;;23.40;99.90;;;;;;5037652;28;20033;-78
2023/08/19 01:03:06;;;;;;;46.13;34.95;;;23.50;99.90;;;;;;5040367;28;20640;-78
2023/08/19 01:06:13;;;;;;;59.38;40.70;;;23.40;99.90;;;;;;5040205;28;20021;-78
2023/08/19 01:08:54;;;;;;;60.58;38.65;;;23.50;99.90;;;;;;5037487;28;20063;-78
2023/08/19 01:11:37;;;;;;;54.95;41.40;;;23.60;99.90;;;;;;5039218;28;20030;-78
2023/08/19 01:14:10;;;;;;;51.35;36.80;;;23.50;99.90;;;;;;5038708;28;20120;-80
2023/08/19 01:16:38;;;;;;;49.05;37.50;;;23.40;99.90;;;;;;5038659;28;20079;-78
2023/08/19 01:19:07;;;;;;;60.15;41.47;;;23.50;99.90;;;;;;5040128;28;20383;-78
2023/08/19 01:21:34;;;;;;;50.28;38.30;;;23.40;99.90;;;;;;5039221;28;20446;-78
2023/08/19 01:24:03;;;;;;;54.63;39.15;;;23.50;99.90;;;;;;5039243;28;20038;-78
2023/08/19 01:26:29;;;;;;;51.72;36.88;;;23.50;99.90;;;;;;5039325;28;20040;-78
2023/08/19 01:28:54;;;;;;;51.95;37.47;;;23.40;99.90;;;;;;5038959;28;20147;-78
2023/08/19 01:31:20;;;;;;;48.13;35.92;;;23.40;99.90;;;;;;5040629;28;20127;-78
2023/08/19 01:33:46;;;;;;;57.35;35.97;;;23.40;99.90;;;;;;5037999;28;20057;-78
2023/08/19 01:36:12;;;;;;;62.55;43.00;;;23.40;99.90;;;;;;5037278;28;20033;-78
2023/08/19 01:39:04;;;;;;;64.00;43.80;;;23.30;99.90;;;;;;5035078;28;20452;-78
2023/08/19 01:41:32;;;;;;;48.10;36.67;;;23.30;99.90;;;;;;5037119;28;20069;-79
2023/08/19 01:43:59;;;;;;;45.05;34.80;;;23.30;99.90;;;;;;5036139;28;20487;-78
2023/08/19 01:46:26;;;;;;;60.05;41.22;;;23.40;99.90;;;;;;5035862;28;20025;-80
2023/08/19 01:48:52;;;;;;;46.10;37.22;;;23.40;99.90;;;;;;5036408;28;20041;-79
2023/08/19 01:51:18;;;;;;;53.50;39.20;;;23.40;99.90;;;;;;5036391;28;20022;-78
2023/08/19 01:53:44;;;;;;;58.58;40.75;;;23.30;99.90;;;;;;5036416;28;20029;-80
2023/08/19 01:56:13;;;;;;;56.30;41.63;;;23.40;99.90;;;;;;5035299;28;20450;-80
2023/08/19 01:58:40;;;;;;;52.55;38.40;;;23.40;99.90;;;;;;5034595;28;20077;-80
2023/08/19 02:01:11;;;;;;;49.60;37.03;;;23.40;99.90;;;;;;5033321;28;20025;-80
2023/08/19 02:03:36;;;;;;;52.83;38.63;;;23.40;99.90;;;;;;5034209;28;20483;-80
2023/08/19 02:06:02;;;;;;;54.35;37.70;;;23.40;99.90;;;;;;5029410;28;20033;-79
2023/08/19 02:08:28;;;;;;;56.28;40.08;;;23.40;99.90;;;;;;5033972;28;20017;-80
2023/08/19 02:10:54;;;;;;;53.13;38.40;;;23.40;99.90;;;;;;5035002;28;20025;-80
2023/08/19 02:13:20;;;;;;;48.88;39.22;;;23.40;99.90;;;;;;5033913;28;20065;-80
2023/08/19 02:15:45;;;;;;;49.83;38.28;;;23.40;99.90;;;;;;5034560;28;20021;-79
2023/08/19 02:18:11;;;;;;;49.40;38.75;;;23.40;99.90;;;;;;5032961;28;20510;-80
2023/08/19 02:20:37;;;;;;;44.03;36.00;;;23.40;99.90;;;;;;5034815;28;20027;-80
2023/08/19 02:23:03;;;;;;;41.40;34.03;;;23.50;99.90;;;;;;5035034;28;20026;-80
2023/08/19 02:25:29;;;;;;;43.78;33.17;;;23.50;99.90;;;;;;5034510;28;20606;-80
2023/08/19 02:27:55;;;;;;;44.28;32.55;;;23.50;99.90;;;;;;5034653;28;20033;-80
2023/08/19 02:30:20;;;;;;;43.33;32.80;;;23.50;99.90;;;;;;5034373;28;20041;-79
2023/08/19 02:32:46;;;;;;;40.60;33.85;;;23.50;99.90;;;;;;5034089;28;20475;-80
2023/08/19 02:35:12;;;;;;;39.90;30.30;;;23.50;99.90;;;;;;5033596;28;20025;-80
2023/08/19 02:37:38;;;;;;;38.95;32.90;;;23.50;99.90;;;;;;5033023;28;20480;-80
2023/08/19 02:40:06;;;;;;;35.25;28.83;;;23.50;99.90;;;;;;5033705;28;20499;-80
2023/08/19 02:42:32;;;;;;;41.00;32.15;;;23.50;99.90;;;;;;5035003;28;20049;-79
2023/08/19 02:44:58;;;;;;;34.45;28.52;;;23.50;99.90;;;;;;5034840;28;20431;-80
2023/08/19 02:47:24;;;;;;;38.50;29.65;;;23.50;99.90;;;;;;5033157;28;20025;-80
2023/08/19 02:49:50;;;;;;;35.88;29.35;;;23.50;99.90;;;;;;5034667;28;20065;-80
2023/08/19 02:52:16;;;;;;;39.63;29.40;;;23.50;99.90;;;;;;5034239;28;20052;-80
2023/08/19 02:54:42;;;;;;;36.53;28.88;;;23.50;99.90;;;;;;5032991;28;20494;-79
2023/08/19 02:57:08;;;;;;;34.97;27.73;;;23.50;99.90;;;;;;5030340;28;20079;-79
2023/08/19 02:59:33;;;;;;;34.75;29.13;;;23.50;99.90;;;;;;5032422;28;20036;-79
2023/08/19 03:01:59;;;;;;;33.60;28.85;;;23.40;99.90;;;;;;5034309;28;20056;-79
2023/08/19 03:04:25;;;;;;;33.03;27.15;;;23.50;99.90;;;;;;5034597;28;20068;-80
2023/08/19 03:06:50;;;;;;;31.90;25.85;;;23.50;99.90;;;;;;5031560;28;20033;-80
2023/08/19 03:09:16;;;;;;;26.13;23.23;;;23.50;99.90;;;;;;5032849;28;20095;-80
2023/08/19 03:11:43;;;;;;;28.33;25.05;;;23.50;99.90;;;;;;5031710;28;20091;-79
2023/08/19 03:14:08;;;;;;;34.85;27.92;;;23.50;99.90;;;;;;5031610;28;20029;-79
2023/08/19 03:16:34;;;;;;;30.48;27.15;;;23.50;99.90;;;;;;5034187;28;20076;-79
2023/08/19 03:19:00;;;;;;;28.00;25.13;;;23.50;99.90;;;;;;5032698;28;20025;-80
2023/08/19 03:21:26;;;;;;;28.02;25.02;;;23.50;99.90;;;;;;5033904;28;20053;-80
2023/08/19 03:23:51;;;;;;;26.83;24.02;;;23.50;99.90;;;;;;5032961;28;20030;-79
2023/08/19 03:26:17;;;;;;;28.73;23.65;;;23.50;99.90;;;;;;5034311;28;20100;-80
2023/08/19 03:28:43;;;;;;;35.88;25.02;;;23.50;99.90;;;;;;5033194;28;20033;-80
2023/08/19 03:31:12;;;;;;;29.63;26.52;;;23.50;99.90;;;;;;5029294;28;20037;-80
2023/08/19 03:33:41;;;;;;;29.83;24.77;;;23.50;99.90;;;;;;5033259;28;20021;-80
2023/08/19 03:36:07;;;;;;;30.33;24.77;;;23.40;99.90;;;;;;5048776;28;20032;-79
2023/08/19 03:38:33;;;;;;;29.33;25.05;;;23.40;99.90;;;;;;5030741;28;20030;-79
2023/08/19 03:40:58;;;;;;;30.50;25.58;;;23.40;99.90;;;;;;5030229;28;20053;-80
2023/08/19 03:43:24;;;;;;;27.02;24.05;;;23.30;99.90;;;;;;5032384;28;20083;-80
2023/08/19 03:45:50;;;;;;;29.00;25.52;;;23.30;99.90;;;;;;5032365;28;20052;-79
2023/08/19 03:48:16;;;;;;;32.03;24.10;;;23.40;99.90;;;;;;5032484;28;20030;-80
2023/08/19 03:50:41;;;;;;;29.45;22.60;;;23.30;99.90;;;;;;5032671;28;20107;-79
2023/08/19 03:53:07;;;;;;;27.33;23.63;;;23.40;99.90;;;;;;5033185;28;20040;-80
2023/08/19 03:55:33;;;;;;;26.35;22.70;;;23.30;99.90;;;;;;5032396;28;20052;-79
2023/08/19 03:57:59;;;;;;;29.35;24.00;;;23.40;99.90;;;;;;5029808;28;20061;-79
2023/08/19 04:00:25;;;;;;;29.85;26.33;;;23.40;99.90;;;;;;5031672;28;20583;-79
2023/08/19 04:02:50;;;;;;;25.15;21.92;;;23.30;99.90;;;;;;5030371;28;20025;-79
2023/08/19 04:05:16;;;;;;;26.95;24.20;;;23.30;99.90;;;;;;5031469;28;20018;-79
2023/08/19 04:07:42;;;;;;;29.17;23.08;;;23.30;99.90;;;;;;5032973;28;20025;-79
2023/08/19 04:10:08;;;;;;;25.80;23.02;;;23.40;99.90;;;;;;5031612;28;20029;-80
2023/08/19 04:12:35;;;;;;;32.38;23.05;;;23.30;99.90;;;;;;5033216;28;20087;-79
2023/08/19 04:15:01;;;;;;;27.08;22.85;;;23.30;99.90;;;;;;5031737;28;20488;-79
2023/08/19 04:17:26;;;;;;;28.63;21.85;;;23.30;99.90;;;;;;5031899;28;20037;-79
2023/08/19 04:19:52;;;;;;;31.75;21.15;;;23.30;99.90;;;;;;5031957;28;20029;-79
2023/08/19 04:22:18;;;;;;;24.88;21.50;;;23.30;99.90;;;;;;5033639;28;20053;-79
2023/08/19 04:24:52;;;;;;;25.08;21.00;;;23.40;99.90;;;;;;5030761;28;20048;-79
2023/08/19 04:27:18;;;;;;;23.48;19.85;;;23.40;99.90;;;;;;5032008;28;20486;-79
2023/08/19 04:29:44;;;;;;;27.17;23.88;;;23.40;99.90;;;;;;5048459;28;20124;-79
2023/08/19 04:32:10;;;;;;;24.10;21.15;;;23.30;99.90;;;;;;5033146;28;20060;-79
2023/08/19 04:34:35;;;;;;;26.67;23.88;;;23.30;99.90;;;;;;5031753;28;20025;-79
2023/08/19 04:37:02;;;;;;;26.17;20.90;;;23.20;99.90;;;;;;5030657;28;20037;-79
2023/08/19 04:39:28;;;;;;;23.85;21.33;;;23.20;99.90;;;;;;5033684;28;20025;-79
2023/08/19 04:41:54;;;;;;;24.58;21.92;;;23.20;99.90;;;;;;5033029;28;20024;-79
2023/08/19 04:44:20;;;;;;;23.27;20.15;;;23.10;99.90;;;;;;5030734;28;20036;-79
2023/08/19 04:46:46;;;;;;;23.35;20.88;;;23.20;99.90;;;;;;5033244;28;20021;-79
2023/08/19 04:49:12;;;;;;;23.67;19.73;;;23.10;99.90;;;;;;5031594;28;20451;-79
2023/08/19 04:51:38;;;;;;;25.60;20.48;;;23.20;99.90;;;;;;5033899;28;20021;-79
2023/08/19 04:54:04;;;;;;;26.85;20.70;;;23.20;99.90;;;;;;5031074;28;20035;-79
2023/08/19 04:56:30;;;;;;;25.30;21.90;;;23.10;99.90;;;;;;5033041;28;20052;-79
2023/08/19 04:59:00;;;;;;;23.25;20.65;;;23.20;99.90;;;;;;5031538;28;20559;-79
2023/08/19 05:01:26;;;;;;;28.08;21.25;;;23.10;99.90;;;;;;5031822;28;20105;-79
2023/08/19 05:03:53;;;;;;;23.58;20.35;;;23.10;99.90;;;;;;5032129;28;20499;-79
2023/08/19 05:06:19;;;;;;;24.33;19.58;;;23.10;99.90;;;;;;5032453;28;20033;-78
2023/08/19 05:08:45;;;;;;;24.38;19.10;;;23.20;99.90;;;;;;5035537;28;20029;-78
2023/08/19 05:11:11;;;;;;;26.35;19.77;;;23.10;99.90;;;;;;5044364;28;20029;-78
2023/08/19 05:13:36;;;;;;;22.92;20.15;;;23.20;99.90;;;;;;5044265;28;20134;-78
2023/08/19 05:16:02;;;;;;;24.15;19.27;;;23.20;99.90;;;;;;5043924;28;20372;-78
2023/08/19 05:18:28;;;;;;;23.73;18.13;;;23.30;99.90;;;;;;5044951;28;20032;-79
2023/08/19 05:20:54;;;;;;;19.02;16.98;;;23.40;99.90;;;;;;5045606;28;20120;-79
2023/08/19 05:23:20;;;;;;;24.23;18.20;;;23.40;99.90;;;;;;5045140;28;20033;-79
2023/08/19 05:25:46;;;;;;;21.13;17.95;;;23.40;99.90;;;;;;5039836;28;20058;-79
2023/08/19 05:28:12;;;;;;;21.67;17.23;;;23.40;99.90;;;;;;5024047;28;20030;-78
2023/08/19 05:30:38;;;;;;;24.50;19.45;;;23.40;99.90;;;;;;5020229;28;20455;-79
2023/08/19 05:33:04;;;;;;;21.42;19.23;;;23.40;99.90;;;;;;5019559;28;20058;-79
2023/08/19 05:35:30;;;;;;;20.55;17.10;;;23.40;99.90;;;;;;5020239;28;20030;-78
2023/08/19 05:37:56;;;;;;;20.23;18.15;;;23.30;99.90;;;;;;5034009;28;20514;-78
2023/08/19 05:40:22;;;;;;;21.02;18.65;;;23.40;99.90;;;;;;5017590;28;20029;-78
2023/08/19 05:42:48;;;;;;;21.85;17.52;;;23.30;99.90;;;;;;5018459;28;20685;-78
2023/08/19 05:45:15;;;;;;;21.08;16.65;;;23.30;99.90;;;;;;5017530;28;20026;-78
2023/08/19 05:47:41;;;;;;;19.80;17.90;;;23.30;99.90;;;;;;5032673;28;20028;-78
2023/08/19 05:50:07;;;;;;;20.35;18.25;;;23.30;99.90;;;;;;5032571;28;20030;-78
2023/08/19 05:52:33;;;;;;;19.88;16.58;;;23.40;99.90;;;;;;5031823;28;20029;-78
2023/08/19 05:54:59;;;;;;;22.70;17.50;;;23.40;99.90;;;;;;5015271;28;20026;-78
2023/08/19 05:57:25;;;;;;;19.77;15.82;;;23.40;99.90;;;;;;5014641;28;20044;-78
2023/08/19 05:59:51;;;;;;;21.75;17.65;;;23.40;99.90;;;;;;5016680;28;20030;-78
2023/08/19 06:02:17;;;;;;;17.92;15.90;;;23.40;99.90;;;;;;5015841;28;20051;-79
2023/08/19 06:04:43;;;;;;;17.65;15.75;;;23.50;99.90;;;;;;5016836;28;20396;-78
2023/08/19 06:07:09;;;;;;;23.17;15.80;;;23.40;99.90;;;;;;5016176;28;20029;-79
2023/08/19 06:09:35;;;;;;;22.63;17.35;;;23.40;99.90;;;;;;5016054;28;20045;-79
2023/08/19 06:12:02;;;;;;;20.80;16.75;;;23.50;99.90;;;;;;5016970;28;20480;-79
2023/08/19 06:14:27;;;;;;;21.73;17.40;;;23.60;99.90;;;;;;5017153;28;20097;-79
2023/08/19 06:16:54;;;;;;;19.08;16.48;;;23.60;99.90;;;;;;5016291;28;20045;-79
2023/08/19 06:19:20;;;;;;;20.88;16.17;;;23.70;99.90;;;;;;5014340;28;20164;-79
2023/08/19 06:21:46;;;;;;;19.38;15.07;;;23.70;99.90;;;;;;5016393;28;20033;-79
2023/08/19 06:24:11;;;;;;;18.85;16.83;;;23.80;99.90;;;;;;5016018;28;20022;-79
2023/08/19 06:26:38;;;;;;;21.08;17.55;;;23.80;99.90;;;;;;5015429;28;20048;-78
2023/08/19 06:29:04;;;;;;;18.85;16.90;;;23.90;99.90;;;;;;5017230;28;20065;-78
2023/08/19 06:31:31;;;;;;;19.10;17.10;;;24.00;99.90;;;;;;5015057;28;20030;-78
2023/08/19 06:33:57;;;;;;;23.83;16.85;;;23.90;99.90;;;;;;5015503;28;20030;-78
2023/08/19 06:36:28;;;;;;;19.13;16.52;;;23.90;99.90;;;;;;5015295;28;20026;-78
2023/08/19 06:39:22;;;;;;;19.08;16.85;;;24.00;99.90;;;;;;5015036;28;20475;-78
2023/08/19 06:41:51;;;;;;;17.55;15.45;;;24.00;99.90;;;;;;5012976;28;20061;-78
2023/08/19 06:44:19;;;;;;;18.08;15.50;;;24.10;99.90;;;;;;5015965;28;20029;-78
2023/08/19 06:46:46;;;;;;;20.30;15.30;;;24.10;99.90;;;;;;5014474;28;20479;-78
2023/08/19 06:49:12;;;;;;;24.13;15.05;;;24.20;99.90;;;;;;5014784;28;20387;-78
2023/08/19 06:51:38;;;;;;;18.50;16.52;;;24.20;99.90;;;;;;5014507;28;20029;-78
2023/08/19 06:54:04;;;;;;;17.67;14.35;;;24.20;99.90;;;;;;5034025;28;20029;-78
2023/08/19 06:56:37;;;;;;;18.45;14.90;;;24.30;99.90;;;;;;5033577;28;20506;-78
2023/08/19 06:59:23;;;;;;;15.65;13.98;;;24.40;99.90;;;;;;5033773;28;20515;-78
2023/08/19 07:01:56;;;;;;;16.55;13.82;;;24.50;99.90;;;;;;5034667;28;20033;-78
2023/08/19 07:04:23;;;;;;;18.92;14.35;;;24.50;99.90;;;;;;5032732;28;20467;-78
2023/08/19 07:06:50;;;;;;;19.98;14.27;;;24.60;99.90;;;;;;5034010;28;20025;-78
2023/08/19 07:09:19;;;;;;;17.25;14.88;;;24.70;99.90;;;;;;5033556;28;20025;-78
2023/08/19 07:11:45;;;;;;;17.83;13.55;;;24.80;99.90;;;;;;5035060;28;20468;-78
2023/08/19 07:14:11;;;;;;;16.45;14.75;;;24.80;99.90;;;;;;5035409;28;20029;-78
2023/08/19 07:16:40;;;;;;;15.43;13.80;;;24.90;99.90;;;;;;5037140;28;20764;-82
2023/08/19 07:19:11;;;;;;;18.05;14.52;;;24.90;99.90;;;;;;5036294;28;20022;-78
2023/08/19 07:21:38;;;;;;;15.77;14.13;;;25.00;99.90;;;;;;5034582;28;20025;-78
2023/08/19 07:24:05;;;;;;;19.65;13.95;;;25.10;99.90;;;;;;5034315;28;20010;-78
2023/08/19 07:26:34;;;;;;;16.50;12.82;;;25.00;99.90;;;;;;5035956;28;20061;-78
2023/08/19 07:29:00;;;;;;;16.75;14.10;;;25.00;99.90;;;;;;5034391;28;20036;-78
2023/08/19 07:31:26;;;;;;;14.40;12.88;;;25.00;99.90;;;;;;5033857;28;20033;-78
2023/08/19 07:33:52;;;;;;;17.98;13.50;;;25.10;99.90;;;;;;5034545;28;20048;-78
2023/08/19 07:36:18;;;;;;;16.70;12.65;;;25.20;99.90;;;;;;5032552;28;20017;-78
2023/08/19 07:38:46;;;;;;;15.35;11.98;;;25.30;99.90;;;;;;5034592;28;20459;-78
2023/08/19 07:41:13;;;;;;;14.00;11.10;;;25.40;99.90;;;;;;5035109;28;20101;-78
2023/08/19 07:43:39;;;;;;;16.58;12.07;;;25.60;99.90;;;;;;5033760;28;20141;-78
2023/08/19 07:46:05;;;;;;;13.93;10.30;;;25.60;99.90;;;;;;5034393;28;20052;-78
2023/08/19 07:48:31;;;;;;;14.38;9.82;;;25.60;99.90;;;;;;5034731;28;20038;-78
2023/08/19 07:50:58;;;;;;;11.63;10.18;;;25.60;99.90;;;;;;5034223;28;20029;-79
2023/08/19 07:53:23;;;;;;;13.05;11.63;;;25.70;99.90;;;;;;5022393;28;20026;-80
2023/08/19 07:55:49;;;;;;;13.85;12.57;;;25.60;99.90;;;;;;5036519;28;20121;-81
2023/08/19 07:58:15;;;;;;;16.33;12.98;;;25.40;99.90;;;;;;5034545;28;20033;-80
2023/08/19 08:00:42;;;;;;;13.98;12.57;;;25.40;99.90;;;;;;5036910;28;20033;-80
2023/08/19 08:03:08;;;;;;;15.48;11.55;;;25.40;99.90;;;;;;5037193;28;20026;-80
2023/08/19 08:05:34;;;;;;;17.27;11.45;;;25.30;99.90;;;;;;5034617;28;20057;-80
2023/08/19 08:08:00;;;;;;;12.13;10.38;;;25.40;99.90;;;;;;5035718;28;20471;-79
2023/08/19 08:10:25;;;;;;;18.08;10.88;;;25.40;99.90;;;;;;5035319;28;20026;-79
2023/08/19 08:12:51;;;;;;;14.38;10.65;;;25.50;99.90;;;;;;5035635;28;20040;-79
2023/08/19 08:15:17;;;;;;;12.20;10.93;;;25.50;99.90;;;;;;5035982;28;20032;-79
2023/08/19 08:17:43;;;;;;;11.35;10.18;;;25.60;99.90;;;;;;5033605;28;20538;-79
2023/08/19 08:20:09;;;;;;;12.40;9.73;;;25.50;99.90;;;;;;5034441;28;20079;-79
2023/08/19 08:22:35;;;;;;;12.15;10.75;;;25.40;99.90;;;;;;5034365;28;20138;-79
2023/08/19 08:25:04;;;;;;;13.23;9.55;;;25.50;99.90;;;;;;5032747;28;20036;-79
2023/08/19 08:27:30;;;;;;;17.05;11.57;;;25.60;99.90;;;;;;5035243;28;20391;-79
2023/08/19 08:29:56;;;;;;;15.63;11.25;;;25.60;99.90;;;;;;5033514;28;20055;-79
2023/08/19 08:32:22;;;;;;;16.52;11.63;;;25.60;99.90;;;;;;5033420;28;20474;-79
2023/08/19 08:34:47;;;;;;;14.15;11.35;;;25.60;99.90;;;;;;5032200;28;20029;-80
2023/08/19 08:37:13;;;;;;;17.30;10.93;;;25.50;99.90;;;;;;5032666;28;20017;-81
2023/08/19 08:39:39;;;;;;;16.23;11.23;;;25.50;99.90;;;;;;5031379;28;20022;-81
2023/08/19 08:42:05;;;;;;;13.98;11.35;;;25.50;99.90;;;;;;5027382;28;20014;-81
2023/08/19 08:44:32;;;;;;;13.18;11.00;;;25.50;99.90;;;;;;5050087;28;20033;-80
2023/08/19 08:47:00;;;;;;;14.02;11.32;;;25.50;99.90;;;;;;5040252;28;20100;-82
2023/08/19 08:49:27;;;;;;;18.17;11.82;;;25.60;99.90;;;;;;5040629;28;20514;-81
2023/08/19 08:51:54;;;;;;;12.95;10.60;;;25.60;99.90;;;;;;5039048;28;20022;-80
2023/08/19 08:54:22;;;;;;;11.52;10.35;;;25.70;99.90;;;;;;5038483;28;20568;-80
2023/08/19 08:56:47;;;;;;;15.38;11.38;;;25.70;99.90;;;;;;5055274;28;20029;-80
2023/08/19 08:59:14;;;;;;;14.57;13.05;;;25.80;99.90;;;;;;5053617;28;20036;-80
2023/08/19 09:01:49;;;;;;;12.60;11.30;;;25.90;99.90;;;;;;5043376;28;20083;-81
2023/08/19 09:04:16;;;;;;;12.20;10.57;;;25.90;99.90;;;;;;5039747;28;20032;-80
2023/08/19 09:06:45;;;;;;;12.15;10.77;;;26.00;99.90;;;;;;5055627;28;20394;-79
2023/08/19 09:09:12;;;;;;;15.65;11.40;;;26.10;99.90;;;;;;5038408;28;20025;-79
2023/08/19 09:11:47;;;;;;;14.55;11.45;;;26.20;99.90;;;;;;5037314;28;20037;-78
2023/08/19 09:14:25;;;;;;;12.73;11.15;;;26.20;99.90;;;;;;5038238;28;20025;-78
2023/08/19 09:16:51;;;;;;;11.95;10.52;;;26.20;99.90;;;;;;5037904;28;20403;-78
2023/08/19 09:19:16;;;;;;;15.43;11.38;;;26.30;99.90;;;;;;5041231;28;20025;-79
2023/08/19 09:21:43;;;;;;;14.73;11.45;;;26.30;99.90;;;;;;5041168;28;20026;-79
2023/08/19 09:24:09;;;;;;;12.63;10.70;;;26.30;99.90;;;;;;5058304;28;20467;-79
2023/08/19 09:26:37;;;;;;;16.02;11.00;;;26.30;99.90;;;;;;5042169;28;20022;-78
2023/08/19 09:29:05;;;;;;;13.85;11.55;;;26.30;99.90;;;;;;5040704;28;20030;-78
2023/08/19 09:31:31;;;;;;;13.25;11.90;;;26.30;99.90;;;;;;5040513;28;20052;-79
2023/08/19 09:33:58;;;;;;;11.90;10.70;;;26.30;99.90;;;;;;5042015;28;20030;-78
2023/08/19 09:36:24;;;;;;;14.82;12.02;;;26.40;99.90;;;;;;5039525;28;20021;-79
2023/08/19 09:38:55;;;;;;;14.02;11.50;;;26.40;99.90;;;;;;5039470;28;20076;-78
2023/08/19 09:41:24;;;;;;;16.40;13.35;;;26.50;99.90;;;;;;5038442;28;20483;-78
2023/08/19 09:43:50;;;;;;;16.50;11.63;;;26.60;99.90;;;;;;5035773;28;20028;-78
2023/08/19 09:46:16;;;;;;;18.65;12.35;;;26.70;99.90;;;;;;5035185;28;20025;-78
2023/08/19 09:48:53;;;;;;;13.68;10.98;;;26.80;99.90;;;;;;5035458;28;20026;-78
2023/08/19 09:51:24;;;;;;;15.88;12.60;;;26.90;99.90;;;;;;5036354;28;20028;-78
2023/08/19 09:53:50;;;;;;;15.60;12.50;;;27.00;99.90;;;;;;5037392;28;20022;-78
2023/08/19 09:56:21;;;;;;;15.25;12.88;;;27.10;99.90;;;;;;5035674;28;20063;-78
2023/08/19 09:58:51;;;;;;;15.25;11.73;;;27.00;99.90;;;;;;5036762;28;20109;-77
2023/08/19 10:01:17;;;;;;;17.95;12.85;;;27.10;99.90;;;;;;5036803;28;20044;-78
2023/08/19 10:03:43;;;;;;;15.35;12.52;;;27.00;99.90;;;;;;5035523;28;20079;-78
2023/08/19 10:06:14;;;;;;;15.25;13.05;;;27.10;99.90;;;;;;5032817;28;20125;-78
2023/08/19 10:08:44;;;;;;;15.43;12.05;;;27.20;99.90;;;;;;5035860;28;20108;-78
2023/08/19 10:11:12;;;;;;;15.30;12.63;;;27.40;99.90;;;;;;5035437;28;20075;-77
2023/08/19 10:13:38;;;;;;;14.10;12.65;;;27.50;99.90;;;;;;5051306;28;20114;-77
2023/08/19 10:16:06;;;;;;;18.65;11.85;;;27.50;99.90;;;;;;5035062;28;20021;-76
2023/08/19 10:18:38;;;;;;;13.30;12.00;;;27.40;99.90;;;;;;5033617;28;20116;-78
2023/08/19 10:21:05;;;;;;;;;;;27.30;99.90;;;;;;5034983;28;20549;-76
2023/08/19 10:23:33;;;;;;;14.32;10.93;;;27.30;99.90;;;;;;5033411;28;19916;-77
2023/08/19 10:25:59;;;;;;;13.80;12.10;;;27.30;99.90;;;;;;5049598;28;20128;-76
2023/08/19 10:28:29;;;;;;;15.68;13.30;;;27.30;99.90;;;;;;5034495;28;20111;-77
2023/08/19 10:31:13;;;;;;;13.85;11.95;;;27.30;99.90;;;;;;5032877;28;20033;-77
2023/08/19 10:33:43;;;;;;;14.93;13.38;;;27.30;99.90;;;;;;5032002;28;20491;-76
2023/08/19 10:36:19;;;;;;;18.08;14.40;;;27.30;99.90;;;;;;5029310;28;20156;-77
2023/08/19 10:38:54;;;;;;;18.92;15.75;;;27.30;99.90;;;;;;5012197;28;20029;-77
2023/08/19 10:41:24;;;;;;;16.98;15.07;;;27.30;99.90;;;;;;5013701;28;20052;-76
2023/08/19 10:43:58;;;;;;;18.40;16.50;;;27.40;99.90;;;;;;5029840;28;20022;-77
2023/08/19 10:46:44;;;;;;;21.88;16.15;;;27.40;99.90;;;;;;5028524;28;20099;-77
2023/08/19 10:49:23;;;;;;;16.67;15.18;;;27.30;99.90;;;;;;5014387;28;20029;-76
2023/08/19 10:52:14;;;;;;;19.25;15.00;;;27.30;99.90;;;;;;5028603;28;20120;-76
2023/08/19 10:54:43;;;;;;;19.58;14.98;;;27.30;99.90;;;;;;5029391;28;20030;-76
2023/08/19 10:57:10;;;;;;;19.20;16.50;;;27.30;99.90;;;;;;5012370;28;20570;-76
2023/08/19 10:59:38;;;;;;;20.88;17.02;;;27.30;99.90;;;;;;5011930;28;20033;-77
2023/08/19 11:02:08;;;;;;;20.00;17.75;;;27.30;99.90;;;;;;5013221;28;20045;-77
2023/08/19 11:04:37;;;;;;;19.70;17.70;;;27.30;99.90;;;;;;5013172;28;20034;-76
2023/08/19 11:07:05;;;;;;;19.67;17.13;;;27.20;99.90;;;;;;5031422;28;20490;-76
2023/08/19 11:09:31;;;;;;;19.63;16.52;;;27.20;99.90;;;;;;5032353;28;20123;-76
2023/08/19 11:12:00;;;;;;;20.83;16.67;;;27.20;99.90;;;;;;5040724;28;20052;-76
2023/08/19 11:14:26;;;;;;;18.83;16.77;;;27.20;99.90;;;;;;5032859;28;20060;-76
2023/08/19 11:16:58;;;;;;;18.63;16.83;;;27.10;99.90;;;;;;5033051;28;20033;-77
2023/08/19 11:19:24;;;;;;;20.48;18.38;;;27.10;99.90;;;;;;5035196;28;20045;-76
2023/08/19 11:21:50;;;;;;;20.52;18.38;;;27.10;99.90;;;;;;5026144;28;20033;-77
2023/08/19 11:24:16;;;;;;;22.30;19.92;;;27.10;99.90;;;;;;5034306;28;20017;-78
2023/08/19 11:26:44;;;;;;;21.33;19.23;;;27.00;99.90;;;;;;5030527;28;20033;-78
2023/08/19 11:29:10;;;;;;;19.95;17.98;;;27.00;99.90;;;;;;5031898;28;20029;-78
2023/08/19 11:31:39;;;;;;;20.90;18.75;;;27.00;99.90;;;;;;5033679;28;20480;-77
2023/08/19 11:34:09;;;;;;;22.80;19.88;;;27.00;99.90;;;;;;5033614;28;20032;-77
2023/08/19 11:36:36;;;;;;;23.25;20.75;;;27.00;99.90;;;;;;5037390;28;20116;-77
2023/08/19 11:39:05;;;;;;;22.63;20.35;;;27.00;99.90;;;;;;5032330;28;20021;-77
2023/08/19 11:41:33;;;;;;;24.17;21.50;;;26.90;99.90;;;;;;5031458;28;20021;-78
2023/08/19 11:44:01;;;;;;;23.90;21.52;;;26.90;99.90;;;;;;5033026;28;20541;-77
2023/08/19 11:46:31;;;;;;;23.95;21.77;;;26.80;99.90;;;;;;5031711;28;20575;-77
2023/08/19 11:48:58;;;;;;;23.38;20.98;;;26.80;99.90;;;;;;5031154;28;20494;-79
2023/08/19 11:51:27;;;;;;;24.00;20.45;;;26.70;99.90;;;;;;5034104;28;20108;-80
2023/08/19 11:54:05;;;;;;;26.05;23.30;;;26.70;99.90;;;;;;5033178;28;20098;-79
2023/08/19 11:56:51;;;;;;;31.80;26.25;;;26.60;99.90;;;;;;5032986;28;20476;-79
2023/08/19 11:59:17;;;;;;;26.23;22.77;;;26.60;99.90;;;;;;5032203;28;20029;-79
2023/08/19 12:01:47;;;;;;;27.25;24.33;;;26.50;99.90;;;;;;5033904;28;20022;-79
2023/08/19 12:04:17;;;;;;;31.30;27.95;;;26.50;99.90;;;;;;5028602;28;20026;-79
2023/08/19 12:06:44;;;;;;;37.10;32.20;;;26.40;99.90;;;;;;5045710;28;20029;-81
2023/08/19 12:09:11;;;;;;;33.20;29.63;;;26.10;99.90;;;;;;5036484;28;20071;-82
2023/08/19 12:11:37;;;;;;;34.80;31.17;;;26.20;99.90;;;;;;5034525;28;20075;-82
2023/08/19 12:14:04;;;;;;;35.95;32.30;;;26.20;99.90;;;;;;5035658;28;20479;-81
2023/08/19 12:16:31;;;;;;;31.42;28.30;;;26.30;99.90;;;;;;5016741;28;20034;-82
2023/08/19 12:19:01;;;;;;;31.88;28.50;;;26.30;99.90;;;;;;5017860;28;20476;-82
2023/08/19 12:21:27;;;;;;;34.47;31.13;;;26.30;99.90;;;;;;5033583;28;20017;-82
2023/08/19 12:23:53;;;;;;;34.60;30.73;;;26.30;99.90;;;;;;5050965;28;20096;-81
2023/08/19 12:26:19;;;;;;;35.00;31.30;;;26.40;99.90;;;;;;5034109;28;20028;-80
2023/08/19 12:28:45;;;;;;;35.47;31.60;;;26.30;99.90;;;;;;5053182;28;20103;-80
2023/08/19 12:31:11;;;;;;;31.30;28.15;;;26.30;99.90;;;;;;5034113;28;20045;-80